Archival Weather

Heathrow

London, United Kingdom (EGLL)

Report from: Thursday, September 21, 2023 9:20 PM BST
Current time: Sunday, July 14, 2024 11:17 AM BST

Current weather – Weather history – Daily summaries
Weather forecast

Temperature14.0°C (57.2°F)
Dew point12.0°C (53.6°F)
Winds 4 kts (2.1 m/s, 4.6 mph) Vrb
Winds variableWinds variable from South-Southeast (150°) to West-Southwest (250°)
Visibility6.2 mi. (10 km)
Altimeter29.41 in.Hg (996 mB)
Relative humidity88 %
Density altitude666 ft. (203 m)
Remarks Fully automated report
No significant changes expected in the next two hours
Flight conditions Visual Meteorological Conditions
Raw dataEGLL 212020Z AUTO 18004KT 150V250 9999 //////CB 14/12 Q0996 NOSIG
An error has occurred. This application may no longer respond until reloaded. Reload 🗙